Aérodrome :
LOGIN :

S'inscrire | Disclaimer

   EN    FR    IT 

 










Légende :    VFR   VFR Marginal   IFR   IFR Intensif   IFR Très Intensif
Visi : 
Plafond : 
>= 8 km
>= 3000ft
5 à 8 km
1000 à 3000 ft
1500m à 5 km
500 à 1000 ft
800 à 1500m
200 à 500 ft
< 800m
< 200 ft
Symboles :   Orages  Brouillard  Fortes neiges  Fortes précipitations  Vent > 20 kt
SIGMETs :   Divers  Orages  Givrage  Turbulence  Onde Orograph.  Cendres Volcan.







- Altitude de l'aérodrome : 247 ft
- Code IATA : BLL


EKBI - Billund

DERNIER METAR :
  • 291720Z AUTO 08010KT 9999NDV NCD 08/02 Q1019

METARs EXPIRÉS :
  • 291650Z 09010KT 9999 FEW030 09/01 Q1019
  • 291620Z 07011KT 9999 FEW030 FEW031TCU 09/02 Q1019
  • 291550Z 07012KT 9999 FEW029 FEW030TCU 09/02 Q1019
  • 291520Z 08010KT 050V120 9999 SCT029 09/02 Q1018
  • 291450Z 09008KT 060V120 9999 SCT027 FEW028TCU 09/02 Q1018

TAF TAF EKBI
Valide du 29 à 18h jusqu'au 30 à 18h UTC


291711Z 2918/3018 09008KT 9999 FEW030
TEMPO 3001/3007 0300 FZFG FG BKN001
BECMG 3007/3009 14015KT
TEMPO 3009/3018 13015G25KT
Pas de NOTAMs connus pour ce terrain.



MET'MAP, la Météo Aéronautique d'un coup d'oeil ! - Copyright ORBIFLY Décembre 2007 - Disclaimer

ORBIFLY MET'MAP TEAM :

Programmation & Développement : Alexandra Zaïnal
Conception & Développement : Baudouin d'Aumeries
Co-Programmation & Développement : Marc-Olivier Méhu
Soutien technique & logistique : Manuel Goepfert

Contact : metmap@orbifly.com




SOURCES & CREDITS :

   NOAA